sensor_id;sensor_type;location;lat;lon;timestamp;temperature;humidity
60353;DHT22;46196;52.970;6.954;2023-06-22T00:00:56;19.10;99.90
60353;DHT22;46196;52.970;6.954;2023-06-22T00:03:24;19.80;99.90
60353;DHT22;46196;52.970;6.954;2023-06-22T00:05:50;18.90;99.90
60353;DHT22;46196;52.970;6.954;2023-06-22T00:08:17;19.10;99.90
60353;DHT22;46196;52.970;6.954;2023-06-22T00:10:44;20.00;99.90
60353;DHT22;46196;52.970;6.954;2023-06-22T00:13:10;19.10;99.90
60353;DHT22;46196;52.970;6.954;2023-06-22T00:15:37;19.00;99.90
60353;DHT22;46196;52.970;6.954;2023-06-22T00:18:08;19.00;99.90
60353;DHT22;46196;52.970;6.954;2023-06-22T00:20:34;18.90;99.90
60353;DHT22;46196;52.970;6.954;2023-06-22T00:23:03;19.00;99.90
60353;DHT22;46196;52.970;6.954;2023-06-22T00:25:38;18.90;99.90
60353;DHT22;46196;52.970;6.954;2023-06-22T01:20:10;18.30;99.90
60353;DHT22;46196;52.970;6.954;2023-06-22T01:31:07;18.20;99.90
60353;DHT22;46196;52.970;6.954;2023-06-22T01:33:37;18.20;99.90
60353;DHT22;46196;52.970;6.954;2023-06-22T01:36:05;18.10;99.90
60353;DHT22;46196;52.970;6.954;2023-06-22T01:38:31;18.90;99.90
60353;DHT22;46196;52.970;6.954;2023-06-22T01:40:58;18.10;99.90
60353;DHT22;46196;52.970;6.954;2023-06-22T01:43:26;18.40;99.90
60353;DHT22;46196;52.970;6.954;2023-06-22T01:45:56;18.10;99.90
60353;DHT22;46196;52.970;6.954;2023-06-22T01:48:22;18.00;99.90
60353;DHT22;46196;52.970;6.954;2023-06-22T01:50:49;17.80;99.90
60353;DHT22;46196;52.970;6.954;2023-06-22T01:53:14;18.00;99.90
60353;DHT22;46196;52.970;6.954;2023-06-22T01:55:40;17.90;99.90
60353;DHT22;46196;52.970;6.954;2023-06-22T01:58:05;17.90;99.90
60353;DHT22;46196;52.970;6.954;2023-06-22T02:00:37;17.90;99.90
60353;DHT22;46196;52.970;6.954;2023-06-22T02:03:10;17.40;99.90
60353;DHT22;46196;52.970;6.954;2023-06-22T02:06:06;17.90;99.90
60353;DHT22;46196;52.970;6.954;2023-06-22T02:08:39;16.50;99.90
60353;DHT22;46196;52.970;6.954;2023-06-22T02:11:06;18.20;99.90
60353;DHT22;46196;52.970;6.954;2023-06-22T02:13:34;17.80;99.90
60353;DHT22;46196;52.970;6.954;2023-06-22T02:16:00;17.20;99.90
60353;DHT22;46196;52.970;6.954;2023-06-22T02:18:26;18.00;99.90
60353;DHT22;46196;52.970;6.954;2023-06-22T02:20:52;19.00;99.90
60353;DHT22;46196;52.970;6.954;2023-06-22T02:23:18;17.70;99.90
60353;DHT22;46196;52.970;6.954;2023-06-22T02:25:43;18.70;99.90
60353;DHT22;46196;52.970;6.954;2023-06-22T02:28:09;17.80;99.90
60353;DHT22;46196;52.970;6.954;2023-06-22T02:30:35;17.70;99.90
60353;DHT22;46196;52.970;6.954;2023-06-22T02:33:01;16.30;99.90
60353;DHT22;46196;52.970;6.954;2023-06-22T02:35:29;17.60;99.90
60353;DHT22;46196;52.970;6.954;2023-06-22T02:37:58;17.60;99.90
60353;DHT22;46196;52.970;6.954;2023-06-22T02:40:25;17.60;99.90
60353;DHT22;46196;52.970;6.954;2023-06-22T02:42:50;17.10;99.90
60353;DHT22;46196;52.970;6.954;2023-06-22T02:45:16;17.50;99.90
60353;DHT22;46196;52.970;6.954;2023-06-22T02:47:42;17.50;99.90
60353;DHT22;46196;52.970;6.954;2023-06-22T02:50:28;17.50;99.90
60353;DHT22;46196;52.970;6.954;2023-06-22T02:52:53;17.40;99.90
60353;DHT22;46196;52.970;6.954;2023-06-22T02:55:19;17.40;99.90
60353;DHT22;46196;52.970;6.954;2023-06-22T02:57:45;17.40;99.90
60353;DHT22;46196;52.970;6.954;2023-06-22T03:00:13;17.30;99.90
60353;DHT22;46196;52.970;6.954;2023-06-22T03:02:47;17.30;99.90
60353;DHT22;46196;52.970;6.954;2023-06-22T03:05:13;17.30;99.90
60353;DHT22;46196;52.970;6.954;2023-06-22T03:07:40;17.20;99.90
60353;DHT22;46196;52.970;6.954;2023-06-22T03:10:11;17.80;99.90
60353;DHT22;46196;52.970;6.954;2023-06-22T03:12:37;16.20;99.90
60353;DHT22;46196;52.970;6.954;2023-06-22T03:15:07;17.20;99.90
60353;DHT22;46196;52.970;6.954;2023-06-22T03:17:34;17.10;99.90
60353;DHT22;46196;52.970;6.954;2023-06-22T03:20:01;17.20;99.90
60353;DHT22;46196;52.970;6.954;2023-06-22T03:22:27;17.10;99.90
60353;DHT22;46196;52.970;6.954;2023-06-22T03:24:53;16.40;99.90
60353;DHT22;46196;52.970;6.954;2023-06-22T03:27:18;15.90;99.90
60353;DHT22;46196;52.970;6.954;2023-06-22T03:29:44;17.00;99.90
60353;DHT22;46196;52.970;6.954;2023-06-22T03:32:10;16.90;99.90
60353;DHT22;46196;52.970;6.954;2023-06-22T03:34:36;16.80;99.90
60353;DHT22;46196;52.970;6.954;2023-06-22T03:37:01;17.50;99.90
60353;DHT22;46196;52.970;6.954;2023-06-22T03:39:28;16.90;99.90
60353;DHT22;46196;52.970;6.954;2023-06-22T03:41:54;16.90;99.90
60353;DHT22;46196;52.970;6.954;2023-06-22T03:44:19;16.90;99.90
60353;DHT22;46196;52.970;6.954;2023-06-22T03:46:45;17.40;99.90
60353;DHT22;46196;52.970;6.954;2023-06-22T03:49:11;16.90;99.90
60353;DHT22;46196;52.970;6.954;2023-06-22T03:51:36;17.00;99.90
60353;DHT22;46196;52.970;6.954;2023-06-22T03:54:02;16.90;99.90
60353;DHT22;46196;52.970;6.954;2023-06-22T03:56:27;15.90;99.90
60353;DHT22;46196;52.970;6.954;2023-06-22T03:58:53;16.90;99.90
60353;DHT22;46196;52.970;6.954;2023-06-22T04:01:19;17.00;99.90
60353;DHT22;46196;52.970;6.954;2023-06-22T04:03:44;17.00;99.90
60353;DHT22;46196;52.970;6.954;2023-06-22T04:06:13;17.00;99.90
60353;DHT22;46196;52.970;6.954;2023-06-22T04:08:39;17.00;99.90
60353;DHT22;46196;52.970;6.954;2023-06-22T04:11:04;17.40;99.90
60353;DHT22;46196;52.970;6.954;2023-06-22T04:13:30;17.00;99.90
60353;DHT22;46196;52.970;6.954;2023-06-22T04:15:56;17.90;99.90
60353;DHT22;46196;52.970;6.954;2023-06-22T04:21:05;17.10;99.90
60353;DHT22;46196;52.970;6.954;2023-06-22T04:23:30;17.40;99.90
60353;DHT22;46196;52.970;6.954;2023-06-22T04:25:56;17.30;99.90
60353;DHT22;46196;52.970;6.954;2023-06-22T04:28:22;17.20;99.90
60353;DHT22;46196;52.970;6.954;2023-06-22T04:30:47;17.20;99.90
60353;DHT22;46196;52.970;6.954;2023-06-22T04:33:14;17.20;99.90
60353;DHT22;46196;52.970;6.954;2023-06-22T04:35:40;17.30;99.90
60353;DHT22;46196;52.970;6.954;2023-06-22T04:38:09;17.30;99.90
60353;DHT22;46196;52.970;6.954;2023-06-22T04:40:34;17.30;99.90
60353;DHT22;46196;52.970;6.954;2023-06-22T04:43:00;17.30;99.90
60353;DHT22;46196;52.970;6.954;2023-06-22T04:45:28;17.40;99.90
60353;DHT22;46196;52.970;6.954;2023-06-22T04:47:57;17.40;99.90
60353;DHT22;46196;52.970;6.954;2023-06-22T04:50:23;17.50;99.90
60353;DHT22;46196;52.970;6.954;2023-06-22T04:52:49;17.40;99.90
60353;DHT22;46196;52.970;6.954;2023-06-22T04:55:15;17.50;99.90
60353;DHT22;46196;52.970;6.954;2023-06-22T04:57:48;17.50;99.90
60353;DHT22;46196;52.970;6.954;2023-06-22T05:00:23;17.60;99.90
60353;DHT22;46196;52.970;6.954;2023-06-22T05:02:49;17.60;99.90
60353;DHT22;46196;52.970;6.954;2023-06-22T05:05:15;17.60;99.90
60353;DHT22;46196;52.970;6.954;2023-06-22T05:07:45;17.60;99.90
60353;DHT22;46196;52.970;6.954;2023-06-22T05:10:13;16.80;99.90
60353;DHT22;46196;52.970;6.954;2023-06-22T05:12:40;17.70;99.90
60353;DHT22;46196;52.970;6.954;2023-06-22T05:15:07;18.10;99.90
60353;DHT22;46196;52.970;6.954;2023-06-22T05:17:33;17.80;99.90
60353;DHT22;46196;52.970;6.954;2023-06-22T05:19:59;17.80;99.90
60353;DHT22;46196;52.970;6.954;2023-06-22T05:22:25;17.90;99.90
60353;DHT22;46196;52.970;6.954;2023-06-22T05:24:50;18.00;99.90
60353;DHT22;46196;52.970;6.954;2023-06-22T05:27:16;18.30;99.90
60353;DHT22;46196;52.970;6.954;2023-06-22T05:29:42;18.00;99.90
60353;DHT22;46196;52.970;6.954;2023-06-22T05:32:08;18.10;99.90
60353;DHT22;46196;52.970;6.954;2023-06-22T05:34:34;18.20;99.90
60353;DHT22;46196;52.970;6.954;2023-06-22T05:36:59;18.20;99.90
60353;DHT22;46196;52.970;6.954;2023-06-22T05:39:25;18.30;99.90
60353;DHT22;46196;52.970;6.954;2023-06-22T05:41:51;18.30;99.90
60353;DHT22;46196;52.970;6.954;2023-06-22T05:44:17;18.40;99.90
60353;DHT22;46196;52.970;6.954;2023-06-22T05:46:44;18.50;99.90
60353;DHT22;46196;52.970;6.954;2023-06-22T05:49:11;18.50;99.90
60353;DHT22;46196;52.970;6.954;2023-06-22T05:51:37;18.60;99.90
60353;DHT22;46196;52.970;6.954;2023-06-22T05:54:02;18.70;99.90
60353;DHT22;46196;52.970;6.954;2023-06-22T05:56:28;18.70;99.90
60353;DHT22;46196;52.970;6.954;2023-06-22T05:58:54;19.60;99.90
60353;DHT22;46196;52.970;6.954;2023-06-22T06:01:19;18.90;99.90
60353;DHT22;46196;52.970;6.954;2023-06-22T06:03:45;19.00;99.90
60353;DHT22;46196;52.970;6.954;2023-06-22T06:06:11;19.10;99.90
60353;DHT22;46196;52.970;6.954;2023-06-22T06:08:38;19.10;99.90
60353;DHT22;46196;52.970;6.954;2023-06-22T06:11:04;19.20;99.90
60353;DHT22;46196;52.970;6.954;2023-06-22T06:13:30;19.30;99.90
60353;DHT22;46196;52.970;6.954;2023-06-22T06:15:56;19.40;99.90
60353;DHT22;46196;52.970;6.954;2023-06-22T06:18:22;19.40;99.90
60353;DHT22;46196;52.970;6.954;2023-06-22T06:20:48;19.50;99.90
60353;DHT22;46196;52.970;6.954;2023-06-22T06:23:14;19.60;99.90
60353;DHT22;46196;52.970;6.954;2023-06-22T06:25:40;19.70;99.90
60353;DHT22;46196;52.970;6.954;2023-06-22T06:28:05;19.80;99.90
60353;DHT22;46196;52.970;6.954;2023-06-22T06:30:31;19.80;99.90
60353;DHT22;46196;52.970;6.954;2023-06-22T06:32:57;19.90;99.90
60353;DHT22;46196;52.970;6.954;2023-06-22T06:35:23;19.90;99.90
60353;DHT22;46196;52.970;6.954;2023-06-22T06:37:49;20.00;99.90
60353;DHT22;46196;52.970;6.954;2023-06-22T06:40:16;20.10;99.90
60353;DHT22;46196;52.970;6.954;2023-06-22T06:42:44;20.20;99.90
60353;DHT22;46196;52.970;6.954;2023-06-22T06:45:18;20.30;99.90
60353;DHT22;46196;52.970;6.954;2023-06-22T06:47:45;20.50;99.90
60353;DHT22;46196;52.970;6.954;2023-06-22T06:50:11;20.60;99.90
60353;DHT22;46196;52.970;6.954;2023-06-22T06:52:37;20.70;99.90
60353;DHT22;46196;52.970;6.954;2023-06-22T06:55:03;20.90;99.90
60353;DHT22;46196;52.970;6.954;2023-06-22T06:57:34;21.00;99.90
60353;DHT22;46196;52.970;6.954;2023-06-22T06:59:59;21.20;99.90
60353;DHT22;46196;52.970;6.954;2023-06-22T07:02:26;21.40;99.90
60353;DHT22;46196;52.970;6.954;2023-06-22T07:04:55;21.50;99.90
60353;DHT22;46196;52.970;6.954;2023-06-22T07:07:24;21.70;99.90
60353;DHT22;46196;52.970;6.954;2023-06-22T07:09:49;21.80;99.90
60353;DHT22;46196;52.970;6.954;2023-06-22T07:12:15;22.00;99.90
60353;DHT22;46196;52.970;6.954;2023-06-22T07:14:41;22.10;99.90
60353;DHT22;46196;52.970;6.954;2023-06-22T07:17:06;22.20;99.90
60353;DHT22;46196;52.970;6.954;2023-06-22T07:19:33;22.30;99.90
60353;DHT22;46196;52.970;6.954;2023-06-22T07:21:58;22.50;99.90
60353;DHT22;46196;52.970;6.954;2023-06-22T07:24:24;22.60;99.90
60353;DHT22;46196;52.970;6.954;2023-06-22T07:26:50;23.00;99.90
60353;DHT22;46196;52.970;6.954;2023-06-22T07:29:20;23.60;99.90
60353;DHT22;46196;52.970;6.954;2023-06-22T07:31:47;24.30;99.90
60353;DHT22;46196;52.970;6.954;2023-06-22T07:34:13;24.70;99.90
60353;DHT22;46196;52.970;6.954;2023-06-22T07:36:39;25.10;99.90
60353;DHT22;46196;52.970;6.954;2023-06-22T07:39:04;25.40;99.90
60353;DHT22;46196;52.970;6.954;2023-06-22T07:41:30;25.80;99.90
60353;DHT22;46196;52.970;6.954;2023-06-22T07:43:56;26.10;99.90
60353;DHT22;46196;52.970;6.954;2023-06-22T07:46:22;26.40;99.90
60353;DHT22;46196;52.970;6.954;2023-06-22T07:48:48;26.70;99.90
60353;DHT22;46196;52.970;6.954;2023-06-22T07:51:14;26.90;99.90
60353;DHT22;46196;52.970;6.954;2023-06-22T07:53:41;27.00;99.90
60353;DHT22;46196;52.970;6.954;2023-06-22T07:56:10;27.20;99.90
60353;DHT22;46196;52.970;6.954;2023-06-22T07:58:35;27.60;99.90
60353;DHT22;46196;52.970;6.954;2023-06-22T08:01:01;27.80;99.90
60353;DHT22;46196;52.970;6.954;2023-06-22T08:03:27;28.10;99.90
60353;DHT22;46196;52.970;6.954;2023-06-22T08:05:53;28.20;99.90
60353;DHT22;46196;52.970;6.954;2023-06-22T08:08:19;28.40;98.30
60353;DHT22;46196;52.970;6.954;2023-06-22T08:10:44;28.60;97.10
60353;DHT22;46196;52.970;6.954;2023-06-22T08:13:10;28.70;96.30
60353;DHT22;46196;52.970;6.954;2023-06-22T08:15:36;28.70;96.50
60353;DHT22;46196;52.970;6.954;2023-06-22T08:18:01;28.80;96.00
60353;DHT22;46196;52.970;6.954;2023-06-22T08:20:27;28.90;95.70
60353;DHT22;46196;52.970;6.954;2023-06-22T08:22:55;28.80;95.00
60353;DHT22;46196;52.970;6.954;2023-06-22T08:25:21;28.80;95.30
60353;DHT22;46196;52.970;6.954;2023-06-22T08:27:47;29.00;93.30
60353;DHT22;46196;52.970;6.954;2023-06-22T08:30:14;29.20;95.30
60353;DHT22;46196;52.970;6.954;2023-06-22T08:32:40;29.20;92.70
60353;DHT22;46196;52.970;6.954;2023-06-22T08:35:06;29.20;93.90
60353;DHT22;46196;52.970;6.954;2023-06-22T08:37:34;29.40;94.10
60353;DHT22;46196;52.970;6.954;2023-06-22T08:40:02;29.50;92.60
60353;DHT22;46196;52.970;6.954;2023-06-22T08:42:30;29.50;92.90
60353;DHT22;46196;52.970;6.954;2023-06-22T08:44:56;29.60;92.60
60353;DHT22;46196;52.970;6.954;2023-06-22T08:47:22;29.60;90.90
60353;DHT22;46196;52.970;6.954;2023-06-22T08:49:48;29.60;91.00
60353;DHT22;46196;52.970;6.954;2023-06-22T08:52:14;29.70;91.30
60353;DHT22;46196;52.970;6.954;2023-06-22T08:54:40;29.90;90.00
60353;DHT22;46196;52.970;6.954;2023-06-22T08:57:06;30.00;88.90
60353;DHT22;46196;52.970;6.954;2023-06-22T08:59:32;30.10;90.40
60353;DHT22;46196;52.970;6.954;2023-06-22T09:01:57;30.20;89.20
60353;DHT22;46196;52.970;6.954;2023-06-22T09:04:24;30.30;84.90
60353;DHT22;46196;52.970;6.954;2023-06-22T09:06:49;30.30;87.70
60353;DHT22;46196;52.970;6.954;2023-06-22T09:09:18;30.40;85.30
60353;DHT22;46196;52.970;6.954;2023-06-22T09:11:44;30.40;86.20
60353;DHT22;46196;52.970;6.954;2023-06-22T09:14:10;30.40;86.40
60353;DHT22;46196;52.970;6.954;2023-06-22T09:16:36;30.40;86.60
60353;DHT22;46196;52.970;6.954;2023-06-22T09:19:02;30.50;86.20
60353;DHT22;46196;52.970;6.954;2023-06-22T09:21:28;30.70;84.90
60353;DHT22;46196;52.970;6.954;2023-06-22T09:23:54;30.70;82.60
60353;DHT22;46196;52.970;6.954;2023-06-22T09:26:20;30.90;83.70
60353;DHT22;46196;52.970;6.954;2023-06-22T09:28:46;30.70;83.50
60353;DHT22;46196;52.970;6.954;2023-06-22T09:31:12;30.70;83.90
60353;DHT22;46196;52.970;6.954;2023-06-22T09:33:40;30.70;83.20
60353;DHT22;46196;52.970;6.954;2023-06-22T09:36:06;30.70;82.60
60353;DHT22;46196;52.970;6.954;2023-06-22T09:38:38;30.80;82.10
60353;DHT22;46196;52.970;6.954;2023-06-22T09:41:04;30.80;81.00
60353;DHT22;46196;52.970;6.954;2023-06-22T09:43:32;30.80;80.70
60353;DHT22;46196;52.970;6.954;2023-06-22T09:45:58;30.90;79.70
60353;DHT22;46196;52.970;6.954;2023-06-22T09:48:24;30.80;78.20
60353;DHT22;46196;52.970;6.954;2023-06-22T09:50:49;30.80;79.50
60353;DHT22;46196;52.970;6.954;2023-06-22T09:53:15;30.80;78.80
60353;DHT22;46196;52.970;6.954;2023-06-22T09:55:40;30.80;78.30
60353;DHT22;46196;52.970;6.954;2023-06-22T09:58:06;30.80;77.10
60353;DHT22;46196;52.970;6.954;2023-06-22T10:00:32;30.60;77.70
60353;DHT22;46196;52.970;6.954;2023-06-22T10:02:57;30.40;78.50
60353;DHT22;46196;52.970;6.954;2023-06-22T10:05:23;30.30;78.30
60353;DHT22;46196;52.970;6.954;2023-06-22T10:07:50;30.20;78.90
60353;DHT22;46196;52.970;6.954;2023-06-22T10:10:16;30.10;79.80
60353;DHT22;46196;52.970;6.954;2023-06-22T10:12:46;30.10;79.80
60353;DHT22;46196;52.970;6.954;2023-06-22T10:15:13;30.10;79.70
60353;DHT22;46196;52.970;6.954;2023-06-22T10:17:39;30.20;79.80
60353;DHT22;46196;52.970;6.954;2023-06-22T10:20:06;30.40;79.80
60353;DHT22;46196;52.970;6.954;2023-06-22T10:22:42;30.50;78.70
60353;DHT22;46196;52.970;6.954;2023-06-22T10:25:09;30.60;77.70
60353;DHT22;46196;52.970;6.954;2023-06-22T10:27:35;30.60;77.50
60353;DHT22;46196;52.970;6.954;2023-06-22T10:30:01;30.30;76.50
60353;DHT22;46196;52.970;6.954;2023-06-22T10:32:27;29.90;78.70
60353;DHT22;46196;52.970;6.954;2023-06-22T10:34:54;29.90;79.30
60353;DHT22;46196;52.970;6.954;2023-06-22T10:37:20;29.90;79.50
60353;DHT22;46196;52.970;6.954;2023-06-22T10:39:45;30.00;80.30
60353;DHT22;46196;52.970;6.954;2023-06-22T10:42:12;30.10;79.40
60353;DHT22;46196;52.970;6.954;2023-06-22T10:44:38;30.30;80.10
60353;DHT22;46196;52.970;6.954;2023-06-22T10:47:06;30.40;78.50
60353;DHT22;46196;52.970;6.954;2023-06-22T10:49:32;30.40;77.40
60353;DHT22;46196;52.970;6.954;2023-06-22T10:51:57;30.10;77.30
60353;DHT22;46196;52.970;6.954;2023-06-22T10:54:23;29.90;77.60
60353;DHT22;46196;52.970;6.954;2023-06-22T10:56:49;29.70;78.90
60353;DHT22;46196;52.970;6.954;2023-06-22T10:59:14;29.60;81.40
60353;DHT22;46196;52.970;6.954;2023-06-22T11:01:40;29.70;82.00
60353;DHT22;46196;52.970;6.954;2023-06-22T11:04:06;29.80;82.30
60353;DHT22;46196;52.970;6.954;2023-06-22T11:06:31;30.00;80.90
60353;DHT22;46196;52.970;6.954;2023-06-22T11:08:57;30.10;81.20
60353;DHT22;46196;52.970;6.954;2023-06-22T11:11:25;30.40;81.00
60353;DHT22;46196;52.970;6.954;2023-06-22T11:13:50;30.50;80.30
60353;DHT22;46196;52.970;6.954;2023-06-22T11:16:16;30.50;78.60
60353;DHT22;46196;52.970;6.954;2023-06-22T11:18:42;30.50;77.20
60353;DHT22;46196;52.970;6.954;2023-06-22T11:21:07;30.50;77.40
60353;DHT22;46196;52.970;6.954;2023-06-22T11:23:33;30.60;77.90
60353;DHT22;46196;52.970;6.954;2023-06-22T11:25:58;30.60;76.70
60353;DHT22;46196;52.970;6.954;2023-06-22T11:28:24;30.40;74.40
60353;DHT22;46196;52.970;6.954;2023-06-22T11:30:50;30.10;75.50
60353;DHT22;46196;52.970;6.954;2023-06-22T11:33:15;30.20;76.60
60353;DHT22;46196;52.970;6.954;2023-06-22T11:35:41;30.20;77.70
60353;DHT22;46196;52.970;6.954;2023-06-22T11:38:07;30.40;77.40
60353;DHT22;46196;52.970;6.954;2023-06-22T11:40:33;30.30;76.20
60353;DHT22;46196;52.970;6.954;2023-06-22T11:42:58;30.20;76.20
60353;DHT22;46196;52.970;6.954;2023-06-22T11:45:24;30.10;76.80
60353;DHT22;46196;52.970;6.954;2023-06-22T11:47:50;30.00;76.40
60353;DHT22;46196;52.970;6.954;2023-06-22T11:50:15;30.00;76.30
60353;DHT22;46196;52.970;6.954;2023-06-22T11:52:41;29.90;76.70
60353;DHT22;46196;52.970;6.954;2023-06-22T11:55:07;29.90;77.30
60353;DHT22;46196;52.970;6.954;2023-06-22T11:57:35;29.90;77.30
60353;DHT22;46196;52.970;6.954;2023-06-22T12:00:01;29.80;75.50
60353;DHT22;46196;52.970;6.954;2023-06-22T12:02:27;29.80;76.10
60353;DHT22;46196;52.970;6.954;2023-06-22T12:04:52;29.80;76.50
60353;DHT22;46196;52.970;6.954;2023-06-22T12:07:20;29.80;77.40
60353;DHT22;46196;52.970;6.954;2023-06-22T12:09:46;29.80;77.30
60353;DHT22;46196;52.970;6.954;2023-06-22T12:12:12;29.80;76.90
60353;DHT22;46196;52.970;6.954;2023-06-22T12:14:37;29.70;78.10
60353;DHT22;46196;52.970;6.954;2023-06-22T12:17:03;29.80;78.10
60353;DHT22;46196;52.970;6.954;2023-06-22T12:19:29;30.00;77.30
60353;DHT22;46196;52.970;6.954;2023-06-22T12:21:54;29.80;77.10
60353;DHT22;46196;52.970;6.954;2023-06-22T12:24:20;30.20;76.90
60353;DHT22;46196;52.970;6.954;2023-06-22T12:26:46;30.30;77.40
60353;DHT22;46196;52.970;6.954;2023-06-22T12:29:11;30.50;77.30
60353;DHT22;46196;52.970;6.954;2023-06-22T12:31:37;30.70;76.20
60353;DHT22;46196;52.970;6.954;2023-06-22T12:34:05;30.80;75.40
60353;DHT22;46196;52.970;6.954;2023-06-22T12:36:30;30.90;74.60
60353;DHT22;46196;52.970;6.954;2023-06-22T12:38:56;31.00;74.00
60353;DHT22;46196;52.970;6.954;2023-06-22T12:41:22;30.80;73.10
60353;DHT22;46196;52.970;6.954;2023-06-22T12:43:47;30.90;72.50
60353;DHT22;46196;52.970;6.954;2023-06-22T12:46:13;30.80;72.50
60353;DHT22;46196;52.970;6.954;2023-06-22T12:48:38;30.70;73.00
60353;DHT22;46196;52.970;6.954;2023-06-22T12:51:08;30.70;73.20
60353;DHT22;46196;52.970;6.954;2023-06-22T12:53:34;30.40;72.30
60353;DHT22;46196;52.970;6.954;2023-06-22T12:56:00;30.30;72.90
60353;DHT22;46196;52.970;6.954;2023-06-22T12:58:26;30.20;73.20
60353;DHT22;46196;52.970;6.954;2023-06-22T13:00:51;30.10;72.80
60353;DHT22;46196;52.970;6.954;2023-06-22T13:03:17;29.90;72.90
60353;DHT22;46196;52.970;6.954;2023-06-22T13:05:42;29.70;73.60
60353;DHT22;46196;52.970;6.954;2023-06-22T13:08:08;29.70;73.50
60353;DHT22;46196;52.970;6.954;2023-06-22T13:10:34;29.50;72.90
60353;DHT22;46196;52.970;6.954;2023-06-22T13:13:00;29.30;73.30
60353;DHT22;46196;52.970;6.954;2023-06-22T13:15:28;29.30;73.70
60353;DHT22;46196;52.970;6.954;2023-06-22T13:17:55;29.00;74.00
60353;DHT22;46196;52.970;6.954;2023-06-22T13:20:21;28.90;74.80
60353;DHT22;46196;52.970;6.954;2023-06-22T13:22:46;28.80;75.40
60353;DHT22;46196;52.970;6.954;2023-06-22T13:25:12;28.60;77.00
60353;DHT22;46196;52.970;6.954;2023-06-22T13:27:42;28.50;76.50
60353;DHT22;46196;52.970;6.954;2023-06-22T13:30:09;28.30;77.30
60353;DHT22;46196;52.970;6.954;2023-06-22T13:32:34;28.10;77.20
60353;DHT22;46196;52.970;6.954;2023-06-22T13:35:00;28.00;77.60
60353;DHT22;46196;52.970;6.954;2023-06-22T13:37:26;27.90;78.20
60353;DHT22;46196;52.970;6.954;2023-06-22T13:39:52;27.90;78.40
60353;DHT22;46196;52.970;6.954;2023-06-22T13:42:18;27.80;79.00
60353;DHT22;46196;52.970;6.954;2023-06-22T13:44:43;27.70;79.10
60353;DHT22;46196;52.970;6.954;2023-06-22T13:47:09;27.70;79.50
60353;DHT22;46196;52.970;6.954;2023-06-22T13:49:35;27.60;79.90
60353;DHT22;46196;52.970;6.954;2023-06-22T13:52:00;27.60;80.90
60353;DHT22;46196;52.970;6.954;2023-06-22T13:54:28;27.50;80.60
60353;DHT22;46196;52.970;6.954;2023-06-22T13:56:54;27.60;81.00
60353;DHT22;46196;52.970;6.954;2023-06-22T13:59:19;27.50;81.50
60353;DHT22;46196;52.970;6.954;2023-06-22T14:01:46;27.50;82.10
60353;DHT22;46196;52.970;6.954;2023-06-22T14:04:12;27.40;83.40
60353;DHT22;46196;52.970;6.954;2023-06-22T14:06:38;27.40;84.50
60353;DHT22;46196;52.970;6.954;2023-06-22T14:09:03;27.40;84.70
60353;DHT22;46196;52.970;6.954;2023-06-22T14:11:29;27.30;85.50
60353;DHT22;46196;52.970;6.954;2023-06-22T14:13:55;27.20;85.70
60353;DHT22;46196;52.970;6.954;2023-06-22T14:16:20;27.00;87.00
60353;DHT22;46196;52.970;6.954;2023-06-22T14:18:46;26.90;87.60
60353;DHT22;46196;52.970;6.954;2023-06-22T14:21:12;26.80;89.60
60353;DHT22;46196;52.970;6.954;2023-06-22T14:23:37;26.80;91.30
60353;DHT22;46196;52.970;6.954;2023-06-22T14:26:03;26.60;93.00
60353;DHT22;46196;52.970;6.954;2023-06-22T14:28:29;26.50;95.50
60353;DHT22;46196;52.970;6.954;2023-06-22T14:30:54;26.40;97.60
60353;DHT22;46196;52.970;6.954;2023-06-22T14:33:20;26.30;99.90
60353;DHT22;46196;52.970;6.954;2023-06-22T14:35:45;26.10;99.90
60353;DHT22;46196;52.970;6.954;2023-06-22T14:38:11;25.90;99.90
60353;DHT22;46196;52.970;6.954;2023-06-22T14:40:37;25.90;99.90
60353;DHT22;46196;52.970;6.954;2023-06-22T14:43:02;25.70;99.90
60353;DHT22;46196;52.970;6.954;2023-06-22T14:45:28;25.60;99.90
60353;DHT22;46196;52.970;6.954;2023-06-22T14:47:54;25.50;99.90
60353;DHT22;46196;52.970;6.954;2023-06-22T14:50:19;25.40;99.90
60353;DHT22;46196;52.970;6.954;2023-06-22T14:52:45;25.20;99.90
60353;DHT22;46196;52.970;6.954;2023-06-22T14:55:11;25.10;99.90
60353;DHT22;46196;52.970;6.954;2023-06-22T14:57:36;25.00;99.90
60353;DHT22;46196;52.970;6.954;2023-06-22T15:00:03;24.20;99.90
60353;DHT22;46196;52.970;6.954;2023-06-22T15:02:29;24.70;99.90
60353;DHT22;46196;52.970;6.954;2023-06-22T15:04:54;24.60;99.90
60353;DHT22;46196;52.970;6.954;2023-06-22T15:07:20;24.50;99.90
60353;DHT22;46196;52.970;6.954;2023-06-22T15:09:46;25.40;99.90
60353;DHT22;46196;52.970;6.954;2023-06-22T15:12:12;24.10;99.90
60353;DHT22;46196;52.970;6.954;2023-06-22T15:14:40;24.00;99.90
60353;DHT22;46196;52.970;6.954;2023-06-22T15:17:07;23.80;99.90
60353;DHT22;46196;52.970;6.954;2023-06-22T15:19:36;23.70;99.90
60353;DHT22;46196;52.970;6.954;2023-06-22T15:22:07;23.70;99.90
60353;DHT22;46196;52.970;6.954;2023-06-22T15:24:33;23.40;99.90
60353;DHT22;46196;52.970;6.954;2023-06-22T15:26:59;23.40;99.90
60353;DHT22;46196;52.970;6.954;2023-06-22T15:29:26;23.30;99.90
60353;DHT22;46196;52.970;6.954;2023-06-22T15:31:52;23.10;99.90
60353;DHT22;46196;52.970;6.954;2023-06-22T15:34:18;23.10;99.90
60353;DHT22;46196;52.970;6.954;2023-06-22T15:36:44;22.90;99.90
60353;DHT22;46196;52.970;6.954;2023-06-22T15:39:10;22.80;99.90
60353;DHT22;46196;52.970;6.954;2023-06-22T15:41:36;22.80;99.90
60353;DHT22;46196;52.970;6.954;2023-06-22T15:44:04;22.70;99.90
60353;DHT22;46196;52.970;6.954;2023-06-22T15:46:30;22.60;99.90
60353;DHT22;46196;52.970;6.954;2023-06-22T15:48:55;22.50;99.90
60353;DHT22;46196;52.970;6.954;2023-06-22T15:51:21;22.40;99.90
60353;DHT22;46196;52.970;6.954;2023-06-22T15:53:47;22.40;99.90
60353;DHT22;46196;52.970;6.954;2023-06-22T15:56:12;22.30;99.90
60353;DHT22;46196;52.970;6.954;2023-06-22T15:58:38;22.20;99.90
60353;DHT22;46196;52.970;6.954;2023-06-22T16:01:06;22.10;99.90
60353;DHT22;46196;52.970;6.954;2023-06-22T16:03:34;22.10;99.90
60353;DHT22;46196;52.970;6.954;2023-06-22T16:06:00;22.00;99.90
60353;DHT22;46196;52.970;6.954;2023-06-22T16:08:25;22.00;99.90
60353;DHT22;46196;52.970;6.954;2023-06-22T16:10:52;21.90;99.90
60353;DHT22;46196;52.970;6.954;2023-06-22T16:13:17;21.80;99.90
60353;DHT22;46196;52.970;6.954;2023-06-22T16:15:43;21.70;99.90
60353;DHT22;46196;52.970;6.954;2023-06-22T16:18:09;21.70;99.90
60353;DHT22;46196;52.970;6.954;2023-06-22T16:20:35;21.50;99.90
60353;DHT22;46196;52.970;6.954;2023-06-22T16:23:00;21.50;99.90
60353;DHT22;46196;52.970;6.954;2023-06-22T16:25:26;21.50;99.90
60353;DHT22;46196;52.970;6.954;2023-06-22T16:27:53;21.40;99.90